Time;durP1;ratioP1;P1;durP2;ratioP2;P2;SDS_P1;SDS_P2;PMS_P1;PMS_P2;Temp;Humidity;BMP_temperature;BMP_pressure;BME280_temperature;BME280_humidity;BME280_pressure;Samples;Min_cycle;Max_cycle;Signal;HPM_P1;HPM_P2
2024/03/28 00:01:36;;;;;;;0.40;0.40;;;7.30;88.10;;;;;;5117395;28;20042;-73
2024/03/28 00:04:02;;;;;;;0.73;0.60;;;7.30;88.10;;;;;;5135752;27;20348;-73
2024/03/28 00:06:27;;;;;;;0.55;0.47;;;7.40;88.00;;;;;;5117128;27;20046;-73
2024/03/28 00:08:53;;;;;;;0.50;0.50;;;7.30;88.00;;;;;;5117165;28;20035;-73
2024/03/28 00:11:19;;;;;;;0.55;0.50;;;7.30;87.90;;;;;;5135348;27;20122;-73
2024/03/28 00:13:45;;;;;;;0.73;0.50;;;7.40;87.90;;;;;;5135554;27;20158;-74
2024/03/28 00:16:10;;;;;;;0.55;0.55;;;7.40;87.90;;;;;;5135698;27;20043;-73
2024/03/28 00:18:36;;;;;;;0.75;0.68;;;7.50;87.90;;;;;;5135408;27;20051;-74
2024/03/28 00:21:02;;;;;;;0.60;0.50;;;7.50;87.90;;;;;;5099930;28;20126;-72
2024/03/28 00:23:29;;;;;;;0.30;0.30;;;7.40;87.80;;;;;;5117111;28;20039;-73
2024/03/28 00:25:56;;;;;;;0.30;0.30;;;7.50;87.90;;;;;;5099903;28;20066;-73
2024/03/28 00:28:22;;;;;;;0.30;0.30;;;7.50;87.90;;;;;;5133313;28;20031;-73
2024/03/28 00:30:49;;;;;;;0.65;0.57;;;7.50;87.90;;;;;;5135657;27;20451;-73
2024/03/28 00:33:16;;;;;;;0.68;0.60;;;7.40;87.80;;;;;;5134964;27;20038;-73
2024/03/28 00:35:43;;;;;;;0.30;0.30;;;7.50;87.90;;;;;;5135234;27;20063;-73
2024/03/28 00:38:09;;;;;;;0.70;0.50;;;7.50;87.90;;;;;;5083032;28;20040;-73
2024/03/28 00:40:37;;;;;;;0.52;0.52;;;7.50;87.90;;;;;;5099412;27;20063;-73
2024/03/28 00:43:03;;;;;;;0.65;0.55;;;7.40;87.90;;;;;;5134883;27;20043;-73
2024/03/28 00:45:29;;;;;;;0.73;0.57;;;7.40;87.90;;;;;;5116494;27;20035;-73
2024/03/28 00:47:55;;;;;;;0.82;0.60;;;7.40;87.90;;;;;;5134767;27;20064;-72
2024/03/28 00:50:24;;;;;;;0.98;0.52;;;7.50;88.00;;;;;;5134752;27;20035;-73
2024/03/28 00:52:50;;;;;;;0.85;0.60;;;7.50;88.10;;;;;;5082790;28;20066;-73
2024/03/28 00:55:16;;;;;;;0.63;0.63;;;7.50;88.10;;;;;;5135371;27;20474;-73
2024/03/28 00:57:41;;;;;;;1.00;0.50;;;7.50;88.10;;;;;;5116461;28;20047;-73
2024/03/28 01:00:07;;;;;;;0.50;0.50;;;7.40;88.00;;;;;;5116717;27;20406;-73
2024/03/28 01:02:33;;;;;;;0.52;0.52;;;7.50;88.00;;;;;;5116169;28;20454;-73
2024/03/28 01:04:59;;;;;;;0.60;0.60;;;7.50;88.00;;;;;;5134449;27;20039;-73
2024/03/28 01:07:25;;;;;;;0.90;0.50;;;7.50;88.00;;;;;;5134267;27;20045;-74
2024/03/28 01:09:53;;;;;;;0.63;0.50;;;7.50;88.00;;;;;;5116015;27;20039;-74
2024/03/28 01:12:19;;;;;;;1.33;0.63;;;7.50;88.00;;;;;;5098675;27;20474;-74
2024/03/28 01:14:45;;;;;;;0.43;0.40;;;7.50;88.00;;;;;;5134655;27;20092;-73
2024/03/28 01:17:11;;;;;;;0.40;0.40;;;7.50;88.00;;;;;;5116131;28;20095;-74
2024/03/28 01:19:37;;;;;;;0.57;0.57;;;7.50;88.00;;;;;;5134316;27;20035;-74
2024/03/28 01:22:03;;;;;;;0.45;0.45;;;7.50;87.90;;;;;;5134610;27;20466;-74
2024/03/28 01:24:29;;;;;;;0.60;0.50;;;7.50;88.00;;;;;;5098882;28;20435;-74
2024/03/28 01:26:55;;;;;;;0.63;0.57;;;7.50;88.00;;;;;;5134108;27;20035;-74
2024/03/28 01:29:21;;;;;;;0.40;0.40;;;7.50;88.00;;;;;;5115586;27;20474;-74
2024/03/28 01:31:47;;;;;;;0.40;0.40;;;7.50;88.00;;;;;;5098741;27;20046;-73
2024/03/28 01:34:13;;;;;;;0.35;0.32;;;7.50;88.00;;;;;;5134338;27;20039;-73
2024/03/28 01:36:39;;;;;;;0.60;0.60;;;7.50;88.10;;;;;;5133547;27;20039;-74
2024/03/28 01:39:05;;;;;;;0.50;0.40;;;7.50;88.10;;;;;;5115460;28;20057;-73
2024/03/28 01:41:30;;;;;;;0.68;0.63;;;7.60;88.20;;;;;;5133919;27;20084;-73
2024/03/28 01:43:56;;;;;;;0.43;0.43;;;7.50;88.10;;;;;;5115440;28;20035;-74
2024/03/28 01:46:25;;;;;;;0.60;0.60;;;7.50;88.20;;;;;;5098419;27;20092;-73
2024/03/28 01:48:55;;;;;;;0.30;0.30;;;7.50;88.20;;;;;;5133490;27;20039;-73
2024/03/28 01:51:24;;;;;;;0.60;0.60;;;7.50;88.20;;;;;;5134269;27;20135;-74
2024/03/28 01:53:53;;;;;;;0.55;0.50;;;7.50;88.20;;;;;;5116090;28;20386;-73
2024/03/28 01:56:20;;;;;;;0.50;0.50;;;7.40;88.10;;;;;;5115946;28;20490;-73
2024/03/28 01:58:46;;;;;;;1.23;0.90;;;7.50;88.20;;;;;;5133492;28;20035;-73
2024/03/28 02:01:13;;;;;;;0.70;0.70;;;7.40;88.20;;;;;;5115262;28;20556;-73
2024/03/28 02:03:39;;;;;;;1.10;0.80;;;7.50;88.20;;;;;;5115063;27;20046;-73
2024/03/28 02:06:05;;;;;;;0.98;0.68;;;7.40;88.10;;;;;;5133990;27;20050;-74
2024/03/28 02:08:31;;;;;;;0.80;0.70;;;7.50;88.20;;;;;;5114579;28;20027;-74
2024/03/28 02:10:58;;;;;;;0.85;0.80;;;7.40;88.20;;;;;;5097902;28;20402;-73
2024/03/28 02:13:24;;;;;;;1.35;0.88;;;7.40;88.30;;;;;;5115376;27;20042;-74
2024/03/28 02:15:53;;;;;;;0.70;0.70;;;7.40;88.30;;;;;;5133188;27;20064;-74
2024/03/28 02:18:21;;;;;;;0.75;0.60;;;7.40;88.30;;;;;;5133263;27;20038;-73
2024/03/28 02:20:48;;;;;;;0.90;0.60;;;7.50;88.30;;;;;;5114785;28;20047;-73
2024/03/28 02:23:15;;;;;;;0.85;0.70;;;7.50;88.30;;;;;;5133199;27;20546;-74
2024/03/28 02:25:42;;;;;;;0.45;0.43;;;7.30;88.20;;;;;;5133454;27;20474;-74
2024/03/28 02:28:09;;;;;;;0.65;0.52;;;7.40;88.30;;;;;;5114970;28;20043;-74
2024/03/28 02:30:34;;;;;;;0.60;0.60;;;7.40;88.30;;;;;;5133209;27;20039;-73
2024/03/28 02:33:00;;;;;;;0.82;0.50;;;7.40;88.30;;;;;;5133463;27;20047;-73
2024/03/28 02:35:26;;;;;;;0.88;0.60;;;7.50;88.30;;;;;;5133280;27;20039;-73
2024/03/28 02:37:52;;;;;;;1.15;0.70;;;7.50;88.30;;;;;;5132918;27;20051;-73
2024/03/28 02:40:17;;;;;;;2.15;0.82;;;7.50;88.30;;;;;;5097583;28;20092;-74
2024/03/28 02:42:43;;;;;;;0.77;0.57;;;7.50;88.30;;;;;;5132496;27;20043;-74
2024/03/28 02:45:09;;;;;;;0.50;0.38;;;7.50;88.20;;;;;;5114305;28;20111;-73
2024/03/28 02:47:36;;;;;;;1.10;0.60;;;7.50;88.20;;;;;;5132855;27;20039;-74
2024/03/28 02:50:02;;;;;;;0.70;0.60;;;7.60;88.20;;;;;;5133175;27;20042;-73
2024/03/28 02:52:28;;;;;;;0.90;0.52;;;7.50;88.00;;;;;;5132759;27;20062;-73
2024/03/28 02:54:53;;;;;;;0.70;0.70;;;7.60;88.10;;;;;;5133177;27;20093;-73
2024/03/28 02:57:24;;;;;;;0.77;0.50;;;7.60;88.10;;;;;;5114404;28;20039;-73
2024/03/28 02:59:50;;;;;;;0.50;0.50;;;7.50;87.90;;;;;;5132974;27;20118;-74
2024/03/28 03:02:16;;;;;;;0.50;0.50;;;7.60;88.60;;;;;;5052572;28;20183;-73
2024/03/28 03:04:42;;;;;;;0.30;0.30;;;7.50;87.90;;;;;;5052729;28;20047;-73
2024/03/28 03:07:07;;;;;;;0.32;0.32;;;7.50;88.00;;;;;;5069975;28;20451;-74
2024/03/28 03:09:33;;;;;;;0.50;0.50;;;7.50;88.00;;;;;;5052792;28;20138;-73
2024/03/28 03:11:59;;;;;;;0.38;0.38;;;7.50;88.00;;;;;;5069244;28;20488;-73
2024/03/28 03:14:25;;;;;;;0.73;0.50;;;7.50;88.00;;;;;;5052718;28;20041;-74
2024/03/28 03:16:54;;;;;;;0.50;0.50;;;7.50;88.00;;;;;;5069913;28;20041;-74
2024/03/28 03:19:19;;;;;;;0.40;0.40;;;7.50;88.00;;;;;;5052946;28;20048;-74
2024/03/28 03:21:49;;;;;;;0.40;0.40;;;7.50;88.00;;;;;;5054271;28;20480;-74
2024/03/28 03:24:15;;;;;;;0.60;0.57;;;7.50;88.10;;;;;;5072704;28;20491;-73
2024/03/28 03:26:49;;;;;;;0.32;0.32;;;7.50;88.10;;;;;;5071364;28;20044;-74
2024/03/28 03:34:36;;;;;;;0.50;0.50;;;7.50;88.20;;;;;;5134866;28;20424;-74
2024/03/28 03:37:03;;;;;;;0.40;0.40;;;7.50;88.20;;;;;;5136240;28;20058;-72
2024/03/28 03:39:29;;;;;;;0.40;0.40;;;7.50;88.10;;;;;;5135589;28;20050;-73
2024/03/28 03:41:55;;;;;;;0.50;0.50;;;7.50;88.10;;;;;;5100366;28;20482;-74
2024/03/28 03:44:29;;;;;;;0.40;0.40;;;7.50;88.10;;;;;;5097860;28;20107;-73
2024/03/28 03:46:55;;;;;;;0.50;0.50;;;7.50;88.10;;;;;;5135868;28;20042;-74
2024/03/28 03:49:23;;;;;;;0.47;0.47;;;7.50;88.00;;;;;;5136068;27;20039;-74
2024/03/28 03:51:49;;;;;;;0.55;0.45;;;7.50;88.00;;;;;;5118394;28;20065;-73
2024/03/28 03:54:15;;;;;;;0.50;0.40;;;7.50;88.00;;;;;;5117091;28;20035;-74
2024/03/28 03:56:41;;;;;;;0.40;0.40;;;7.50;88.00;;;;;;5117195;28;20176;-73
2024/03/28 03:59:08;;;;;;;0.47;0.40;;;7.40;87.90;;;;;;5135564;27;20122;-74
2024/03/28 04:01:33;;;;;;;0.75;0.63;;;7.50;88.10;;;;;;5117493;28;20042;-73
2024/03/28 04:03:59;;;;;;;0.50;0.50;;;7.40;88.10;;;;;;5133545;28;20366;-74
2024/03/28 04:06:25;;;;;;;0.73;0.70;;;7.40;88.20;;;;;;5099737;27;20435;-74
2024/03/28 04:08:51;;;;;;;0.50;0.50;;;7.40;88.20;;;;;;5135824;27;20038;-74
2024/03/28 04:11:17;;;;;;;0.70;0.70;;;7.30;88.20;;;;;;5117152;28;20043;-74
2024/03/28 04:13:42;;;;;;;0.68;0.68;;;7.40;88.30;;;;;;5135324;27;20080;-74
2024/03/28 04:16:08;;;;;;;0.63;0.63;;;7.30;88.20;;;;;;5135158;27;20427;-74
2024/03/28 04:18:34;;;;;;;0.90;0.60;;;7.30;88.30;;;;;;5135446;27;20509;-74
2024/03/28 04:21:00;;;;;;;0.52;0.52;;;7.20;88.30;;;;;;5135324;27;20054;-73
2024/03/28 04:23:26;;;;;;;0.50;0.43;;;7.20;88.30;;;;;;5135180;27;20042;-74
2024/03/28 04:25:54;;;;;;;0.45;0.45;;;7.20;88.30;;;;;;5135567;27;20043;-73
2024/03/28 04:28:23;;;;;;;0.85;0.60;;;7.20;88.40;;;;;;5134996;27;20088;-74
2024/03/28 04:30:50;;;;;;;0.60;0.60;;;7.20;88.40;;;;;;5116483;28;20047;-74
2024/03/28 04:33:17;;;;;;;0.52;0.52;;;7.10;88.40;;;;;;5074674;28;20044;-73
2024/03/28 04:35:43;;;;;;;1.13;0.80;;;7.10;88.40;;;;;;5091923;28;20051;-74
2024/03/28 04:38:10;;;;;;;0.52;0.52;;;7.10;88.40;;;;;;5074368;28;20046;-74
2024/03/28 04:40:36;;;;;;;0.45;0.45;;;7.20;88.50;;;;;;5074758;28;20504;-73
2024/03/28 04:43:02;;;;;;;0.55;0.55;;;7.10;88.40;;;;;;5074911;28;20569;-74
2024/03/28 04:45:28;;;;;;;0.80;0.50;;;7.10;88.40;;;;;;5055837;28;20106;-73
2024/03/28 04:47:55;;;;;;;0.75;0.50;;;7.10;88.40;;;;;;5074530;28;20040;-73
2024/03/28 04:50:21;;;;;;;0.80;0.63;;;7.10;88.40;;;;;;5074793;28;20140;-73
2024/03/28 04:52:47;;;;;;;0.68;0.50;;;7.10;88.40;;;;;;5057752;28;20039;-74
2024/03/28 04:55:13;;;;;;;1.45;0.60;;;7.10;88.40;;;;;;5092153;28;20097;-73
2024/03/28 04:57:39;;;;;;;1.30;0.70;;;7.10;88.50;;;;;;5056006;28;20638;-74
2024/03/28 05:00:06;;;;;;;0.90;0.70;;;7.10;88.40;;;;;;5055716;28;20134;-73
2024/03/28 05:02:33;;;;;;;1.13;0.85;;;7.00;88.40;;;;;;5058172;28;20040;-74
2024/03/28 05:04:58;;;;;;;1.15;0.80;;;7.00;88.40;;;;;;5091183;28;20070;-74
2024/03/28 05:07:24;;;;;;;0.77;0.68;;;7.00;88.40;;;;;;5099406;28;20070;-74
2024/03/28 05:09:50;;;;;;;0.77;0.60;;;7.00;88.40;;;;;;5134301;27;20050;-73
2024/03/28 05:12:16;;;;;;;1.13;0.88;;;7.00;88.30;;;;;;5074279;28;20042;-73
2024/03/28 05:14:41;;;;;;;1.40;0.90;;;7.00;88.40;;;;;;5091454;28;20047;-74
2024/03/28 05:17:07;;;;;;;0.90;0.88;;;7.00;88.40;;;;;;5074496;28;20048;-73
2024/03/28 05:19:36;;;;;;;1.15;0.90;;;7.00;88.40;;;;;;5041423;28;20159;-74
2024/03/28 05:22:02;;;;;;;1.48;0.93;;;7.00;88.40;;;;;;5091538;28;20055;-73
2024/03/28 05:24:28;;;;;;;1.55;1.00;;;7.00;88.40;;;;;;5074417;28;20052;-74
2024/03/28 05:26:55;;;;;;;1.15;0.75;;;7.00;88.40;;;;;;5091728;28;20383;-74
2024/03/28 05:29:21;;;;;;;2.05;1.10;;;6.90;88.30;;;;;;5091422;28;20036;-73
2024/03/28 05:31:47;;;;;;;1.60;1.00;;;6.90;88.30;;;;;;5057880;28;20499;-73
2024/03/28 05:34:13;;;;;;;1.45;0.88;;;7.00;88.40;;;;;;5091768;28;20127;-73
2024/03/28 05:36:40;;;;;;;1.10;0.77;;;6.90;88.40;;;;;;5091032;28;20131;-73
2024/03/28 05:39:06;;;;;;;1.33;1.00;;;6.90;88.40;;;;;;5074684;28;20130;-73
2024/03/28 05:41:32;;;;;;;0.85;0.68;;;6.90;88.40;;;;;;5091197;28;20070;-74
2024/03/28 05:43:59;;;;;;;1.45;1.00;;;6.90;88.40;;;;;;5088179;28;20043;-73
2024/03/28 05:46:25;;;;;;;1.40;0.90;;;6.90;88.40;;;;;;5116008;27;20047;-73
2024/03/28 05:48:51;;;;;;;1.05;0.75;;;6.90;88.40;;;;;;5115417;28;20444;-73
2024/03/28 05:51:17;;;;;;;1.10;0.80;;;6.90;88.30;;;;;;5134238;27;20070;-73
2024/03/28 05:53:45;;;;;;;0.90;0.70;;;6.90;88.30;;;;;;5115347;28;20066;-73
2024/03/28 05:56:12;;;;;;;0.73;0.60;;;6.90;88.30;;;;;;5134316;27;20046;-73
2024/03/28 05:58:38;;;;;;;1.80;0.80;;;7.00;88.30;;;;;;5115326;28;20391;-73
2024/03/28 06:01:04;;;;;;;0.93;0.65;;;6.90;88.20;;;;;;5133969;27;20031;-73
2024/03/28 06:03:30;;;;;;;0.90;0.68;;;6.80;88.20;;;;;;5134103;27;20072;-74
2024/03/28 06:05:56;;;;;;;0.95;0.80;;;7.00;88.20;;;;;;5115450;28;20031;-74
2024/03/28 06:08:22;;;;;;;1.05;0.80;;;7.00;88.20;;;;;;5115626;28;20542;-73
2024/03/28 06:10:47;;;;;;;1.25;0.90;;;7.00;88.20;;;;;;5133882;27;20535;-73
2024/03/28 06:13:16;;;;;;;1.13;0.90;;;7.00;88.10;;;;;;5098734;28;20043;-73
2024/03/28 06:15:42;;;;;;;0.85;0.80;;;7.10;88.00;;;;;;5098689;28;20050;-74
2024/03/28 06:18:12;;;;;;;1.83;1.00;;;7.10;88.00;;;;;;5115207;28;20046;-75
2024/03/28 06:20:39;;;;;;;0.80;0.75;;;7.10;87.90;;;;;;5115716;28;20477;-73
2024/03/28 06:23:05;;;;;;;0.90;0.60;;;7.10;87.80;;;;;;5114653;27;20043;-74
2024/03/28 06:25:36;;;;;;;1.45;0.88;;;7.10;87.80;;;;;;5115001;27;20043;-73
2024/03/28 06:28:01;;;;;;;0.80;0.60;;;7.20;87.80;;;;;;5098859;28;20039;-74
2024/03/28 06:30:30;;;;;;;0.50;0.50;;;7.20;87.70;;;;;;5133766;27;20039;-74
2024/03/28 06:32:56;;;;;;;0.80;0.50;;;7.20;87.70;;;;;;5133293;27;20063;-74
2024/03/28 06:35:24;;;;;;;0.55;0.40;;;7.20;87.70;;;;;;5133071;27;20071;-73
2024/03/28 06:37:49;;;;;;;0.65;0.65;;;7.20;87.70;;;;;;5036320;28;20036;-74
2024/03/28 06:40:16;;;;;;;0.85;0.63;;;7.30;87.70;;;;;;5070017;28;20047;-74
2024/03/28 06:42:42;;;;;;;0.80;0.60;;;7.20;87.70;;;;;;5053610;28;20044;-74
2024/03/28 06:45:08;;;;;;;0.90;0.70;;;7.30;87.80;;;;;;5036481;28;20040;-74
2024/03/28 06:47:34;;;;;;;1.58;1.00;;;7.20;87.70;;;;;;5053524;28;20377;-74
2024/03/28 06:50:01;;;;;;;1.20;0.90;;;7.20;87.70;;;;;;5069898;28;20048;-73
2024/03/28 06:52:27;;;;;;;1.00;0.80;;;7.30;87.90;;;;;;5052906;28;20055;-74
2024/03/28 06:54:53;;;;;;;0.77;0.75;;;7.30;87.80;;;;;;5069734;28;20110;-74
2024/03/28 06:57:19;;;;;;;0.50;0.50;;;7.40;87.70;;;;;;5069549;28;20036;-74
2024/03/28 06:59:45;;;;;;;0.75;0.60;;;7.50;87.70;;;;;;5069478;28;20044;-74
2024/03/28 07:02:10;;;;;;;0.82;0.63;;;7.60;87.50;;;;;;5052869;28;20083;-74
2024/03/28 07:04:36;;;;;;;0.70;0.70;;;7.70;87.40;;;;;;5070098;28;20048;-73
2024/03/28 07:07:02;;;;;;;1.13;0.68;;;7.90;87.10;;;;;;5036008;28;20102;-74
2024/03/28 07:09:28;;;;;;;0.68;0.68;;;8.00;86.70;;;;;;5119564;27;20082;-73
2024/03/28 07:11:55;;;;;;;1.27;0.50;;;8.10;86.50;;;;;;5114544;28;20035;-73
2024/03/28 07:14:23;;;;;;;0.43;0.43;;;8.20;86.40;;;;;;5114609;27;20115;-74
2024/03/28 07:16:49;;;;;;;0.43;0.43;;;8.20;86.40;;;;;;5080626;28;20553;-73
2024/03/28 07:19:15;;;;;;;0.35;0.35;;;8.30;86.20;;;;;;5097318;28;20086;-73
2024/03/28 07:21:41;;;;;;;1.48;0.80;;;8.40;86.20;;;;;;5132486;27;20043;-75
2024/03/28 07:24:07;;;;;;;0.60;0.60;;;8.50;86.10;;;;;;5114012;27;20067;-74
2024/03/28 07:26:33;;;;;;;0.80;0.60;;;8.60;86.10;;;;;;5113970;28;20058;-74
2024/03/28 07:28:59;;;;;;;1.63;0.80;;;8.60;86.00;;;;;;5114297;28;20114;-74
2024/03/28 07:31:24;;;;;;;0.95;0.60;;;8.80;85.90;;;;;;5132564;27;20118;-74
2024/03/28 07:33:50;;;;;;;0.60;0.60;;;8.90;85.80;;;;;;5114311;28;20107;-74
2024/03/28 07:36:16;;;;;;;0.60;0.60;;;8.90;85.60;;;;;;5132341;27;20068;-74
2024/03/28 07:38:44;;;;;;;0.45;0.45;;;9.00;85.50;;;;;;5132526;28;20031;-73
2024/03/28 07:41:09;;;;;;;0.60;0.60;;;9.10;85.40;;;;;;5132303;27;20043;-74
2024/03/28 07:43:35;;;;;;;0.55;0.47;;;9.20;85.40;;;;;;5114420;28;20513;-74
2024/03/28 07:46:05;;;;;;;0.50;0.45;;;9.10;85.30;;;;;;5113789;27;20498;-74
2024/03/28 07:48:33;;;;;;;0.38;0.38;;;9.10;85.40;;;;;;5113857;28;20031;-74
2024/03/28 07:51:00;;;;;;;0.32;0.32;;;9.20;85.50;;;;;;5132579;27;20031;-74
2024/03/28 07:53:27;;;;;;;0.73;0.52;;;9.20;85.50;;;;;;5114166;28;20043;-74
2024/03/28 07:55:53;;;;;;;0.40;0.40;;;9.20;85.50;;;;;;5132331;27;20035;-74
2024/03/28 07:58:19;;;;;;;0.43;0.43;;;9.10;85.60;;;;;;5132214;27;20039;-74
2024/03/28 08:00:45;;;;;;;0.50;0.50;;;9.10;85.70;;;;;;5113762;28;20502;-74
2024/03/28 08:03:14;;;;;;;0.70;0.60;;;9.10;85.80;;;;;;5132543;27;20043;-73
2024/03/28 08:05:40;;;;;;;0.47;0.47;;;9.00;85.90;;;;;;5132206;27;20051;-74
2024/03/28 08:08:06;;;;;;;0.57;0.52;;;9.00;86.00;;;;;;5098776;27;20047;-74
2024/03/28 08:10:33;;;;;;;0.68;0.60;;;9.00;86.70;;;;;;5135439;27;20039;-75
2024/03/28 08:12:58;;;;;;;0.75;0.65;;;9.10;86.10;;;;;;5135530;27;20031;-75
2024/03/28 08:15:25;;;;;;;1.38;0.70;;;9.10;86.00;;;;;;5135484;27;20039;-74
2024/03/28 08:17:51;;;;;;;0.85;0.60;;;9.00;85.90;;;;;;5115114;28;20050;-74
2024/03/28 08:20:18;;;;;;;0.65;0.65;;;9.00;85.80;;;;;;5099743;28;20043;-74
2024/03/28 08:22:44;;;;;;;1.38;0.80;;;9.00;85.80;;;;;;5135443;27;20118;-74
2024/03/28 08:25:10;;;;;;;0.95;0.73;;;9.00;85.80;;;;;;5135396;27;20546;-75
2024/03/28 08:27:38;;;;;;;0.55;0.50;;;9.00;85.80;;;;;;5117014;28;20043;-75
2024/03/28 08:30:05;;;;;;;0.80;0.70;;;8.90;85.80;;;;;;5116780;27;20067;-76
2024/03/28 08:32:32;;;;;;;0.88;0.63;;;8.80;85.90;;;;;;5135848;27;20031;-75
2024/03/28 08:34:58;;;;;;;0.75;0.70;;;8.80;86.00;;;;;;5135434;27;20451;-76
2024/03/28 08:37:24;;;;;;;0.68;0.60;;;8.70;86.10;;;;;;5116629;27;20078;-75
2024/03/28 08:39:50;;;;;;;0.93;0.63;;;8.70;86.30;;;;;;5116564;28;20031;-76
2024/03/28 08:42:17;;;;;;;1.08;0.77;;;8.60;86.40;;;;;;5116913;28;20039;-75
2024/03/28 08:44:44;;;;;;;1.45;0.80;;;8.50;86.50;;;;;;5099468;27;20547;-76
2024/03/28 08:47:09;;;;;;;0.52;0.52;;;8.50;86.70;;;;;;5116407;27;20050;-76
2024/03/28 08:49:36;;;;;;;0.40;0.40;;;8.50;86.80;;;;;;5116585;28;20394;-75
2024/03/28 08:52:03;;;;;;;0.85;0.60;;;8.50;86.90;;;;;;5116662;27;20122;-76
2024/03/28 08:54:29;;;;;;;0.88;0.60;;;8.50;87.00;;;;;;5134977;27;20043;-76
2024/03/28 08:56:55;;;;;;;0.90;0.50;;;8.40;87.70;;;;;;5134921;27;20122;-76
2024/03/28 08:59:23;;;;;;;0.40;0.40;;;8.50;87.20;;;;;;5134914;27;20042;-75
2024/03/28 09:01:50;;;;;;;0.60;0.60;;;8.40;87.20;;;;;;5099480;28;20046;-76
2024/03/28 09:04:20;;;;;;;0.40;0.40;;;8.40;87.30;;;;;;5099763;28;20039;-74
2024/03/28 09:06:46;;;;;;;0.55;0.50;;;8.40;87.30;;;;;;5113992;28;20043;-75
2024/03/28 09:09:14;;;;;;;0.30;0.30;;;8.40;87.40;;;;;;5116052;27;20494;-75
2024/03/28 09:11:42;;;;;;;0.43;0.30;;;8.40;87.30;;;;;;5135054;27;20035;-75
2024/03/28 09:14:07;;;;;;;0.43;0.43;;;8.40;87.40;;;;;;5097825;28;20376;-75
2024/03/28 09:16:34;;;;;;;0.85;0.40;;;8.60;87.60;;;;;;5097234;28;20043;-75
2024/03/28 09:19:01;;;;;;;1.15;0.50;;;8.40;87.40;;;;;;5133054;27;20126;-74
2024/03/28 09:21:27;;;;;;;0.30;0.30;;;8.50;87.50;;;;;;5115917;27;20042;-75
2024/03/28 09:23:54;;;;;;;0.50;0.40;;;8.50;87.50;;;;;;5116044;28;20129;-74
2024/03/28 09:26:20;;;;;;;0.30;0.30;;;8.40;87.50;;;;;;5116434;28;20043;-74
2024/03/28 09:28:49;;;;;;;0.40;0.40;;;8.50;87.60;;;;;;5116295;27;20047;-75
2024/03/28 09:31:16;;;;;;;0.95;0.60;;;8.50;87.60;;;;;;5116215;27;20126;-75
2024/03/28 09:33:42;;;;;;;0.30;0.30;;;8.40;87.70;;;;;;5115905;28;20498;-74
2024/03/28 09:36:09;;;;;;;0.75;0.50;;;8.40;87.80;;;;;;5115580;28;20054;-74
2024/03/28 09:38:35;;;;;;;0.30;0.20;;;8.40;87.90;;;;;;5115970;28;20051;-74
2024/03/28 09:41:10;;;;;;;0.50;0.50;;;8.30;87.90;;;;;;5115785;27;20057;-75
2024/03/28 09:43:39;;;;;;;0.50;0.40;;;8.30;88.10;;;;;;5082763;28;20041;-74
2024/03/28 09:46:05;;;;;;;0.55;0.40;;;8.30;88.10;;;;;;5133783;27;20039;-74
2024/03/28 09:48:39;;;;;;;0.60;0.55;;;8.30;88.30;;;;;;5133883;27;20040;-75
2024/03/28 09:51:08;;;;;;;0.32;0.32;;;8.30;88.30;;;;;;5038546;28;20059;-75
2024/03/28 09:53:35;;;;;;;0.60;0.50;;;8.30;88.30;;;;;;5043413;28;20052;-75
2024/03/28 09:56:01;;;;;;;0.63;0.35;;;8.30;88.40;;;;;;5064054;28;20048;-75
2024/03/28 09:58:27;;;;;;;0.45;0.45;;;8.30;89.00;;;;;;5082980;28;20048;-75
2024/03/28 10:00:56;;;;;;;1.17;0.60;;;8.30;88.40;;;;;;5066152;28;20048;-75
2024/03/28 10:03:32;;;;;;;0.45;0.40;;;8.30;88.40;;;;;;5064307;28;20052;-76
2024/03/28 10:05:58;;;;;;;0.45;0.45;;;8.20;88.40;;;;;;5078131;28;20108;-75
2024/03/28 10:08:25;;;;;;;0.40;0.40;;;8.30;88.60;;;;;;5062041;28;20044;-75
2024/03/28 10:10:56;;;;;;;0.75;0.60;;;8.30;88.60;;;;;;5064081;28;20048;-75
2024/03/28 10:13:39;;;;;;;0.20;0.20;;;8.40;88.60;;;;;;5076082;28;20143;-75
2024/03/28 10:16:07;;;;;;;0.47;0.40;;;8.40;88.70;;;;;;5062954;28;20056;-75
2024/03/28 10:18:33;;;;;;;0.35;0.35;;;8.40;88.50;;;;;;5063187;28;20060;-75
2024/03/28 10:20:59;;;;;;;0.60;0.40;;;8.40;88.50;;;;;;5072207;28;20048;-75
2024/03/28 10:23:26;;;;;;;0.55;0.47;;;8.50;88.60;;;;;;5142013;27;20035;-75
2024/03/28 10:25:55;;;;;;;0.55;0.55;;;8.40;88.50;;;;;;5123290;28;20074;-75
2024/03/28 10:28:27;;;;;;;0.40;0.40;;;8.50;88.60;;;;;;5108110;28;20054;-76
2024/03/28 10:30:59;;;;;;;0.52;0.52;;;8.50;88.60;;;;;;5121035;27;20039;-76
2024/03/28 10:33:25;;;;;;;0.88;0.50;;;8.40;88.60;;;;;;5107965;28;20027;-75
2024/03/28 10:36:00;;;;;;;0.60;0.60;;;8.40;88.60;;;;;;5136598;27;20050;-76
2024/03/28 10:38:26;;;;;;;1.13;0.65;;;8.30;88.70;;;;;;5103789;28;20104;-74
2024/03/28 10:40:57;;;;;;;0.80;0.32;;;8.30;88.80;;;;;;5137139;27;20486;-74
2024/03/28 10:43:27;;;;;;;0.50;0.43;;;8.30;88.90;;;;;;5123138;27;20051;-75
2024/03/28 10:46:02;;;;;;;0.20;0.20;;;8.20;89.00;;;;;;5140591;27;20141;-75
2024/03/28 10:48:30;;;;;;;0.20;0.20;;;8.20;89.10;;;;;;5134248;27;20066;-73
2024/03/28 10:51:12;;;;;;;0.65;0.52;;;8.20;89.00;;;;;;5099053;28;20046;-74
2024/03/28 10:53:52;;;;;;;0.55;0.50;;;8.20;89.10;;;;;;5084304;28;20068;-75
2024/03/28 10:56:19;;;;;;;0.40;0.40;;;8.20;89.10;;;;;;5120063;27;20402;-74
2024/03/28 10:58:48;;;;;;;0.43;0.43;;;8.20;89.10;;;;;;5098503;28;20035;-74
2024/03/28 11:01:14;;;;;;;0.40;0.40;;;8.30;89.10;;;;;;5134665;27;20047;-74
2024/03/28 11:03:41;;;;;;;0.73;0.43;;;8.30;89.00;;;;;;5115211;27;20047;-73
2024/03/28 11:06:08;;;;;;;0.63;0.50;;;8.30;89.00;;;;;;5115827;28;20390;-74
2024/03/28 11:08:35;;;;;;;0.40;0.40;;;8.40;89.00;;;;;;5098781;28;20061;-74
2024/03/28 11:11:02;;;;;;;0.40;0.40;;;8.40;89.00;;;;;;5115718;28;20490;-74
2024/03/28 11:13:28;;;;;;;0.98;0.43;;;8.50;89.10;;;;;;5114463;27;20424;-74
2024/03/28 11:16:03;;;;;;;0.43;0.40;;;8.50;88.80;;;;;;5133131;28;20084;-75
2024/03/28 11:18:32;;;;;;;0.60;0.40;;;8.60;88.70;;;;;;5133342;27;20035;-74
2024/03/28 11:20:59;;;;;;;1.02;0.45;;;8.70;88.60;;;;;;5114910;28;20049;-74
2024/03/28 11:23:30;;;;;;;0.50;0.50;;;8.80;88.50;;;;;;5133306;28;20039;-74
2024/03/28 11:26:03;;;;;;;;;;;8.90;88.40;;;;;;5133805;27;20462;-73
2024/03/28 11:28:30;;;;;;;1.40;0.60;;;9.00;88.20;;;;;;5134747;27;19934;-75
2024/03/28 11:30:57;;;;;;;0.65;0.60;;;9.00;88.10;;;;;;5134460;27;20043;-75
2024/03/28 11:33:32;;;;;;;0.60;0.60;;;9.10;88.20;;;;;;5116830;28;20505;-75
2024/03/28 11:36:01;;;;;;;0.52;0.52;;;9.10;88.20;;;;;;5115737;27;20055;-74
2024/03/28 11:38:26;;;;;;;1.05;0.80;;;9.20;88.20;;;;;;5081351;28;20046;-75
2024/03/28 11:40:56;;;;;;;0.93;0.77;;;9.20;88.10;;;;;;5133473;27;20043;-75
2024/03/28 11:43:23;;;;;;;1.35;0.60;;;9.30;88.10;;;;;;5116454;28;20050;-75
2024/03/28 11:45:50;;;;;;;2.35;0.80;;;9.40;88.00;;;;;;5118702;28;20496;-74
2024/03/28 11:48:17;;;;;;;0.75;0.75;;;9.40;88.00;;;;;;5118036;28;20050;-75
2024/03/28 11:50:43;;;;;;;1.10;0.80;;;9.40;87.90;;;;;;5101302;28;20396;-76
2024/03/28 11:53:10;;;;;;;1.00;0.90;;;9.40;87.90;;;;;;5118310;28;20031;-74
2024/03/28 11:55:41;;;;;;;1.67;0.90;;;9.50;87.90;;;;;;5100583;28;20046;-75
2024/03/28 11:58:18;;;;;;;1.33;0.90;;;9.50;87.80;;;;;;5136265;27;20043;-74
2024/03/28 12:00:44;;;;;;;1.13;0.88;;;9.60;87.90;;;;;;5118747;28;20047;-75
2024/03/28 12:03:11;;;;;;;1.35;1.00;;;9.60;87.70;;;;;;5135993;27;20058;-74
2024/03/28 12:05:37;;;;;;;1.15;1.00;;;9.70;87.70;;;;;;5117696;28;20134;-74
2024/03/28 12:08:04;;;;;;;1.35;1.25;;;9.80;87.50;;;;;;5117991;27;20123;-75
2024/03/28 12:10:30;;;;;;;1.65;1.27;;;9.90;87.40;;;;;;5100601;28;20072;-75
2024/03/28 12:12:56;;;;;;;1.65;1.23;;;9.90;87.20;;;;;;5100118;28;20530;-75
2024/03/28 12:15:22;;;;;;;3.20;1.70;;;10.00;87.10;;;;;;5083104;28;20126;-73
2024/03/28 12:17:48;;;;;;;1.95;1.52;;;10.20;87.00;;;;;;5135346;27;20043;-74
2024/03/28 12:20:20;;;;;;;1.98;1.48;;;10.30;86.70;;;;;;5135659;27;20046;-75
2024/03/28 12:22:47;;;;;;;1.80;1.50;;;10.40;86.30;;;;;;5135345;27;20611;-74
2024/03/28 12:25:13;;;;;;;1.85;1.40;;;10.60;86.10;;;;;;5116697;28;20039;-74
2024/03/28 12:27:39;;;;;;;1.50;1.40;;;10.60;86.00;;;;;;5117316;28;20042;-74
2024/03/28 12:30:10;;;;;;;1.92;1.45;;;10.70;85.90;;;;;;5117051;28;20039;-73
2024/03/28 12:32:38;;;;;;;2.50;1.70;;;10.70;85.70;;;;;;5100548;28;20051;-75
2024/03/28 12:35:05;;;;;;;3.25;1.60;;;10.90;85.60;;;;;;5117583;27;20035;-75
2024/03/28 12:37:32;;;;;;;1.95;1.40;;;10.90;85.40;;;;;;5136228;28;20031;-74
2024/03/28 12:40:04;;;;;;;2.22;1.40;;;11.00;85.30;;;;;;5116972;28;20027;-75
2024/03/28 12:42:32;;;;;;;1.77;1.40;;;11.20;85.20;;;;;;5133878;28;20031;-75
2024/03/28 12:45:10;;;;;;;1.38;1.27;;;11.20;85.00;;;;;;5117045;28;20046;-75
2024/03/28 12:47:36;;;;;;;1.58;1.20;;;11.30;84.90;;;;;;5116367;28;20047;-76
2024/03/28 12:50:02;;;;;;;1.10;1.00;;;11.30;84.70;;;;;;5135601;27;20133;-75
2024/03/28 12:52:27;;;;;;;1.38;1.02;;;11.30;84.70;;;;;;5134824;27;20039;-75
2024/03/28 12:54:53;;;;;;;1.23;1.00;;;11.30;84.80;;;;;;5135345;27;20035;-75
2024/03/28 12:57:20;;;;;;;1.00;0.88;;;11.30;84.80;;;;;;5075325;28;20047;-75
2024/03/28 12:59:45;;;;;;;1.70;0.82;;;11.40;84.80;;;;;;5074859;28;20040;-75
2024/03/28 13:02:11;;;;;;;0.85;0.85;;;11.40;84.80;;;;;;5092002;28;20126;-75